Time;durP1;ratioP1;P1;durP2;ratioP2;P2;SDS_P1;SDS_P2;PMS_P1;PMS_P2;Temp;Humidity;BMP_temperature;BMP_pressure;BME280_temperature;BME280_humidity;BME280_pressure;Samples;Min_cycle;Max_cycle;Signal;HPM_P1;HPM_P2
2023/03/04 00:00:26;;;;;;;14.97;3.10;;;5.10;99.90;;;;;;5010273;28;20060;-77
2023/03/04 00:02:52;;;;;;;16.83;2.80;;;5.30;99.90;;;;;;5010100;28;20058;-77
2023/03/04 00:05:17;;;;;;;17.10;3.20;;;5.30;99.90;;;;;;5011891;28;20592;-77
2023/03/04 00:07:43;;;;;;;13.63;2.47;;;5.20;99.90;;;;;;4996263;28;20399;-77
2023/03/04 00:10:09;;;;;;;20.40;2.93;;;5.20;99.90;;;;;;5010759;28;20049;-78
2023/03/04 00:12:35;;;;;;;20.17;2.73;;;5.20;99.90;;;;;;5011262;28;20056;-76
2023/03/04 00:15:01;;;;;;;15.83;3.27;;;5.20;99.90;;;;;;5010897;28;20049;-77
2023/03/04 00:17:28;;;;;;;16.43;3.07;;;5.20;99.90;;;;;;4993921;28;20096;-78
2023/03/04 00:19:55;;;;;;;14.03;2.60;;;5.20;99.90;;;;;;5012275;28;20128;-77
2023/03/04 00:22:20;;;;;;;18.87;3.27;;;5.30;99.90;;;;;;5009981;28;20049;-77
2023/03/04 00:24:46;;;;;;;13.93;2.67;;;5.20;99.90;;;;;;5013107;28;20050;-77
2023/03/04 00:27:12;;;;;;;19.70;2.20;;;5.20;99.90;;;;;;5000745;28;20045;-77
2023/03/04 00:29:37;;;;;;;18.97;3.30;;;5.30;99.90;;;;;;5011761;28;20157;-78
2023/03/04 00:32:03;;;;;;;19.30;3.03;;;5.30;99.90;;;;;;5010819;28;20082;-76
2023/03/04 00:34:29;;;;;;;22.73;3.47;;;5.20;99.90;;;;;;5010843;28;20699;-77
2023/03/04 00:37:00;;;;;;;18.23;3.30;;;5.20;99.90;;;;;;4996825;28;20080;-78
2023/03/04 00:39:27;;;;;;;17.07;3.00;;;5.20;99.90;;;;;;5010622;28;20464;-77
2023/03/04 00:41:52;;;;;;;18.50;3.33;;;5.20;99.90;;;;;;5017349;28;20565;-78
2023/03/04 00:44:18;;;;;;;19.13;3.10;;;5.20;99.90;;;;;;5030635;28;20049;-77
2023/03/04 00:46:44;;;;;;;18.47;3.30;;;5.20;99.90;;;;;;5011930;28;20402;-77
2023/03/04 00:49:09;;;;;;;20.33;2.97;;;5.20;99.90;;;;;;5009039;28;20054;-77
2023/03/04 00:51:36;;;;;;;20.23;3.17;;;5.30;99.90;;;;;;4994848;28;20141;-77
2023/03/04 00:54:02;;;;;;;28.70;4.07;;;5.20;99.90;;;;;;4990952;28;20381;-77
2023/03/04 00:56:28;;;;;;;21.70;3.80;;;5.20;99.90;;;;;;4980079;28;20133;-77
2023/03/04 00:58:54;;;;;;;23.50;3.60;;;5.30;99.90;;;;;;4987272;28;20061;-78
2023/03/04 01:01:20;;;;;;;16.23;3.07;;;5.20;99.90;;;;;;4992302;28;20058;-77
2023/03/04 01:03:46;;;;;;;20.87;3.27;;;5.20;99.90;;;;;;5009086;28;20404;-77
2023/03/04 01:06:11;;;;;;;13.07;2.83;;;5.20;99.90;;;;;;5002039;28;20041;-77
2023/03/04 01:08:37;;;;;;;18.57;3.20;;;5.20;99.90;;;;;;5008160;28;20557;-77
2023/03/04 01:11:03;;;;;;;20.80;2.70;;;5.20;99.90;;;;;;5017716;28;20081;-76
2023/03/04 01:13:29;;;;;;;20.77;2.67;;;5.20;99.90;;;;;;5009552;28;20049;-77
2023/03/04 01:15:55;;;;;;;16.17;2.77;;;5.20;99.90;;;;;;5011377;28;20395;-76
2023/03/04 01:18:20;;;;;;;19.50;3.10;;;5.10;99.90;;;;;;4994676;28;20386;-77
2023/03/04 01:20:46;;;;;;;15.03;3.00;;;5.20;99.90;;;;;;5011466;28;20441;-77
2023/03/04 01:23:12;;;;;;;18.07;3.00;;;5.20;99.90;;;;;;4976675;28;20488;-76
2023/03/04 01:25:38;;;;;;;12.70;2.80;;;5.20;99.90;;;;;;5017862;28;20092;-78
2023/03/04 01:28:04;;;;;;;14.40;2.57;;;5.20;99.90;;;;;;5013048;28;20123;-77
2023/03/04 01:30:30;;;;;;;17.70;2.47;;;5.10;99.90;;;;;;5030559;28;20045;-77
2023/03/04 01:32:56;;;;;;;14.87;3.03;;;5.20;99.90;;;;;;5029871;28;20053;-76
2023/03/04 01:35:22;;;;;;;13.40;2.40;;;5.20;99.90;;;;;;5028914;28;20574;-77
2023/03/04 01:37:48;;;;;;;19.43;3.20;;;5.20;99.90;;;;;;4995444;28;20050;-78
2023/03/04 01:40:13;;;;;;;18.23;3.10;;;5.10;99.90;;;;;;5010069;28;20050;-76
2023/03/04 01:42:39;;;;;;;15.60;2.87;;;5.10;99.90;;;;;;5022968;28;20523;-77
2023/03/04 01:45:06;;;;;;;23.17;3.87;;;5.10;99.90;;;;;;5029773;28;20054;-77
2023/03/04 01:47:35;;;;;;;17.97;3.47;;;5.10;99.90;;;;;;5002153;28;20046;-77
2023/03/04 01:50:03;;;;;;;17.77;3.20;;;5.00;99.90;;;;;;5007003;28;20128;-78
2023/03/04 01:52:29;;;;;;;21.60;3.20;;;5.10;99.90;;;;;;5008134;28;20486;-77
2023/03/04 01:54:55;;;;;;;25.17;3.20;;;5.00;99.90;;;;;;5010087;28;20042;-77
2023/03/04 01:57:22;;;;;;;20.37;3.07;;;5.00;99.90;;;;;;4991900;28;20050;-77
2023/03/04 02:00:14;;;;;;;22.00;3.53;;;5.00;99.90;;;;;;4990728;28;20058;-77
2023/03/04 02:02:40;;;;;;;22.48;3.28;;;5.00;99.90;;;;;;5002473;28;20436;-77
2023/03/04 02:05:06;;;;;;;12.43;2.43;;;5.00;99.90;;;;;;5009321;28;20042;-77
2023/03/04 02:07:31;;;;;;;20.30;3.03;;;5.10;99.90;;;;;;4994341;28;20507;-77
2023/03/04 02:09:57;;;;;;;13.87;2.67;;;5.00;99.90;;;;;;5022181;28;20038;-77
2023/03/04 02:12:23;;;;;;;21.27;3.30;;;5.00;99.90;;;;;;5008993;28;20057;-77
2023/03/04 02:14:48;;;;;;;11.37;2.50;;;5.10;99.90;;;;;;5008732;28;20042;-77
2023/03/04 02:17:14;;;;;;;16.40;2.40;;;5.00;99.90;;;;;;4994435;28;20077;-77
2023/03/04 02:19:46;;;;;;;15.63;2.50;;;5.00;99.90;;;;;;5009879;28;20498;-77
2023/03/04 02:22:11;;;;;;;15.70;2.53;;;5.00;99.90;;;;;;5009743;28;20046;-78
2023/03/04 02:24:44;;;;;;;16.60;2.87;;;5.00;99.90;;;;;;5020971;28;20056;-77
2023/03/04 02:27:10;;;;;;;19.07;2.90;;;5.00;99.90;;;;;;5013245;28;20061;-77
2023/03/04 02:29:36;;;;;;;13.70;2.27;;;5.00;99.90;;;;;;5028984;28;20041;-77
2023/03/04 02:32:02;;;;;;;20.17;3.07;;;5.00;99.90;;;;;;5028915;28;20795;-78
2023/03/04 02:34:34;;;;;;;15.60;3.13;;;5.00;99.90;;;;;;5027656;28;20053;-78
2023/03/04 02:37:01;;;;;;;18.87;2.80;;;5.00;99.90;;;;;;4999212;28;20069;-78
2023/03/04 02:39:31;;;;;;;13.43;2.27;;;5.00;99.90;;;;;;5009078;28;20065;-78
2023/03/04 02:41:57;;;;;;;17.50;2.67;;;5.00;99.90;;;;;;5017507;28;20049;-78
2023/03/04 02:44:38;;;;;;;20.30;2.67;;;5.10;99.90;;;;;;5029044;28;20148;-78
2023/03/04 02:47:06;;;;;;;10.30;1.90;;;5.10;99.90;;;;;;5012813;28;20039;-77
2023/03/04 02:49:33;;;;;;;16.10;2.43;;;5.10;99.90;;;;;;5012148;28;20464;-77
2023/03/04 02:52:13;;;;;;;16.70;2.07;;;5.10;99.90;;;;;;4990031;28;20050;-77
2023/03/04 02:54:39;;;;;;;20.43;2.37;;;5.10;99.90;;;;;;4989015;28;20536;-78
2023/03/04 02:57:08;;;;;;;15.10;2.40;;;5.10;99.90;;;;;;4975993;28;20042;-77
2023/03/04 02:59:35;;;;;;;16.53;2.80;;;5.10;99.90;;;;;;4994422;28;20350;-77
2023/03/04 03:02:01;;;;;;;19.83;2.67;;;5.10;99.90;;;;;;4983842;28;20385;-76
2023/03/04 03:04:27;;;;;;;17.97;2.30;;;5.10;99.90;;;;;;5012864;28;20056;-77
2023/03/04 03:06:53;;;;;;;15.37;2.80;;;5.10;99.90;;;;;;4981011;28;20337;-77
2023/03/04 03:09:19;;;;;;;15.83;3.00;;;5.20;99.90;;;;;;5022064;28;20053;-77
2023/03/04 03:11:45;;;;;;;18.03;2.67;;;5.20;99.90;;;;;;5013924;28;20042;-77
2023/03/04 03:14:10;;;;;;;14.03;2.13;;;5.20;99.90;;;;;;5011227;28;20041;-77
2023/03/04 03:16:36;;;;;;;13.07;2.23;;;5.10;99.90;;;;;;4999790;28;20085;-76
2023/03/04 03:19:02;;;;;;;15.23;2.90;;;5.30;99.90;;;;;;5011150;28;20061;-77
2023/03/04 03:21:28;;;;;;;15.63;2.20;;;5.20;99.90;;;;;;5013324;28;20119;-78
2023/03/04 03:23:53;;;;;;;13.50;2.00;;;5.20;99.90;;;;;;5017971;28;20541;-77
2023/03/04 03:26:19;;;;;;;17.47;2.50;;;5.20;99.90;;;;;;5007481;28;20046;-77
2023/03/04 03:28:45;;;;;;;16.37;2.53;;;5.20;99.90;;;;;;5007444;28;20551;-77
2023/03/04 03:31:11;;;;;;;15.67;2.50;;;5.20;99.90;;;;;;5013210;28;20046;-78
2023/03/04 03:33:37;;;;;;;12.30;2.40;;;5.10;99.90;;;;;;5011164;28;20415;-78
2023/03/04 03:36:03;;;;;;;16.73;2.50;;;5.30;99.90;;;;;;5013003;28;20050;-78
2023/03/04 03:38:29;;;;;;;14.77;1.83;;;5.20;99.90;;;;;;4999487;28;20112;-77
2023/03/04 03:40:55;;;;;;;13.33;2.20;;;5.20;99.90;;;;;;5012244;28;20436;-78
2023/03/04 03:43:20;;;;;;;15.80;2.60;;;5.10;99.90;;;;;;5030857;28;20064;-78
2023/03/04 03:45:46;;;;;;;16.17;2.40;;;5.10;99.90;;;;;;5032451;28;20033;-78
2023/03/04 03:48:12;;;;;;;12.10;2.27;;;5.10;99.90;;;;;;5000680;28;20503;-78
2023/03/04 03:50:38;;;;;;;20.13;2.63;;;5.10;99.90;;;;;;5005965;28;20046;-78
2023/03/04 03:53:03;;;;;;;16.20;2.50;;;5.20;99.90;;;;;;4991477;28;20409;-78
2023/03/04 03:55:29;;;;;;;14.83;2.57;;;5.10;99.90;;;;;;4992591;28;20436;-78
2023/03/04 03:57:55;;;;;;;19.30;2.77;;;5.10;99.90;;;;;;4999203;28;20092;-78
2023/03/04 04:00:21;;;;;;;14.33;2.10;;;5.10;99.90;;;;;;5012347;28;20100;-78
2023/03/04 04:02:47;;;;;;;11.07;1.90;;;5.10;99.90;;;;;;5017786;28;20052;-77
2023/03/04 04:05:13;;;;;;;16.70;2.20;;;5.20;99.90;;;;;;5032109;28;20041;-78
2023/03/04 04:07:40;;;;;;;13.17;2.43;;;5.10;99.90;;;;;;5015170;28;20056;-78
2023/03/04 04:10:07;;;;;;;11.47;2.27;;;5.20;99.90;;;;;;5044409;28;20094;-78
2023/03/04 04:12:33;;;;;;;8.67;1.47;;;5.20;99.90;;;;;;5026750;28;20538;-78
2023/03/04 04:14:58;;;;;;;12.47;2.33;;;5.20;99.90;;;;;;5011142;28;20045;-78
2023/03/04 04:17:24;;;;;;;15.80;2.10;;;5.20;99.90;;;;;;4993996;28;20053;-78
2023/03/04 04:19:50;;;;;;;12.50;2.33;;;5.10;99.90;;;;;;5007336;28;20097;-78
2023/03/04 04:22:18;;;;;;;14.20;1.87;;;5.20;99.90;;;;;;5007387;28;20100;-78
2023/03/04 04:24:44;;;;;;;11.90;1.80;;;5.20;99.90;;;;;;5019571;28;20152;-78
2023/03/04 04:27:10;;;;;;;21.87;2.43;;;5.20;99.90;;;;;;4993276;28;20501;-78
2023/03/04 04:29:36;;;;;;;13.17;2.53;;;5.20;99.90;;;;;;5008023;28;20510;-78
2023/03/04 04:32:02;;;;;;;11.97;1.60;;;5.20;99.90;;;;;;5007162;28;20054;-73
2023/03/04 04:34:28;;;;;;;16.00;1.70;;;5.20;99.90;;;;;;5009265;28;20054;-78
2023/03/04 04:36:54;;;;;;;13.47;2.40;;;5.20;99.90;;;;;;4994080;28;20356;-78
2023/03/04 04:39:20;;;;;;;13.33;2.10;;;5.20;99.90;;;;;;5009332;28;20381;-78
2023/03/04 04:41:46;;;;;;;11.97;2.00;;;5.30;99.90;;;;;;5014350;28;20049;-78
2023/03/04 04:44:12;;;;;;;13.07;1.90;;;5.20;99.90;;;;;;5026889;28;20061;-78
2023/03/04 04:46:39;;;;;;;15.10;2.10;;;5.40;99.90;;;;;;5009884;28;20057;-77
2023/03/04 04:49:05;;;;;;;9.67;1.37;;;5.40;99.90;;;;;;5006260;28;20053;-77
2023/03/04 04:51:33;;;;;;;17.10;2.83;;;5.40;99.90;;;;;;4994625;28;20051;-78
2023/03/04 04:54:00;;;;;;;13.30;1.77;;;5.40;99.90;;;;;;4988471;28;20097;-77
2023/03/04 04:56:26;;;;;;;14.53;2.10;;;5.40;99.90;;;;;;4977316;28;20046;-77
2023/03/04 04:58:57;;;;;;;14.40;1.77;;;5.30;99.90;;;;;;4985005;28;20061;-77
2023/03/04 05:01:23;;;;;;;10.77;1.42;;;5.30;99.90;;;;;;4991660;28;20060;-77
2023/03/04 05:03:52;;;;;;;9.90;1.60;;;5.30;99.90;;;;;;5007954;28;20061;-77
2023/03/04 05:06:18;;;;;;;17.57;1.80;;;5.30;99.90;;;;;;4997152;28;20060;-78
2023/03/04 05:08:44;;;;;;;12.47;1.63;;;5.30;99.90;;;;;;5008028;28;20091;-78
2023/03/04 05:11:10;;;;;;;13.67;1.70;;;5.20;99.90;;;;;;5014607;28;20054;-77
2023/03/04 05:13:35;;;;;;;14.00;1.80;;;5.30;99.90;;;;;;5007672;28;20089;-78
2023/03/04 05:16:01;;;;;;;14.20;1.90;;;5.20;99.90;;;;;;5008467;28;20076;-78
2023/03/04 05:18:27;;;;;;;11.50;2.20;;;5.20;99.90;;;;;;4992338;28;20052;-77
2023/03/04 05:20:55;;;;;;;13.83;1.93;;;5.20;99.90;;;;;;5007808;28;20452;-77
2023/03/04 05:23:22;;;;;;;17.70;2.20;;;5.20;99.90;;;;;;5007736;28;20050;-78
2023/03/04 05:25:47;;;;;;;17.90;2.97;;;5.20;99.90;;;;;;5018548;28;20073;-77
2023/03/04 05:28:14;;;;;;;15.83;2.20;;;5.40;99.90;;;;;;4992187;28;20506;-78
2023/03/04 05:30:41;;;;;;;14.33;2.50;;;5.30;99.90;;;;;;5008604;28;20583;-77
2023/03/04 05:33:08;;;;;;;17.77;2.37;;;5.30;99.90;;;;;;5007531;28;20058;-77
2023/03/04 05:35:38;;;;;;;18.57;2.67;;;5.30;99.90;;;;;;5006236;28;20054;-77
2023/03/04 05:38:06;;;;;;;15.33;2.30;;;5.30;99.90;;;;;;4993431;28;20408;-77
2023/03/04 05:40:32;;;;;;;19.50;2.10;;;5.20;99.90;;;;;;5005905;28;20567;-78
2023/03/04 05:42:58;;;;;;;13.13;2.27;;;5.30;99.90;;;;;;5003179;28;20552;-78
2023/03/04 05:45:24;;;;;;;13.90;2.10;;;5.20;99.90;;;;;;4990990;28;20046;-77
2023/03/04 05:47:52;;;;;;;16.23;2.20;;;5.30;99.90;;;;;;4995271;28;20503;-77
2023/03/04 05:50:19;;;;;;;17.97;2.47;;;5.20;99.90;;;;;;5000933;28;20129;-78
2023/03/04 05:52:45;;;;;;;15.43;2.30;;;5.20;99.90;;;;;;5006501;28;20072;-78
2023/03/04 05:55:11;;;;;;;21.23;2.30;;;5.20;99.90;;;;;;5007506;28;20070;-77
2023/03/04 05:57:36;;;;;;;13.60;1.80;;;5.20;99.90;;;;;;4991065;28;20133;-78
2023/03/04 06:00:04;;;;;;;17.23;2.50;;;5.20;99.90;;;;;;5008310;28;20048;-76
2023/03/04 06:02:30;;;;;;;10.17;1.73;;;5.20;99.90;;;;;;5006199;28;20518;-78
2023/03/04 06:04:56;;;;;;;11.83;1.83;;;5.20;99.90;;;;;;5006235;28;20050;-77
2023/03/04 06:07:22;;;;;;;10.50;1.50;;;5.10;99.90;;;;;;4992070;28;20049;-77
2023/03/04 06:09:47;;;;;;;9.20;1.33;;;5.10;99.90;;;;;;5020168;28;20059;-78
2023/03/04 06:12:13;;;;;;;11.67;1.60;;;5.10;99.90;;;;;;5007046;28;20084;-77
2023/03/04 06:14:39;;;;;;;10.37;1.77;;;5.10;99.90;;;;;;5007486;28;20495;-78
2023/03/04 06:17:04;;;;;;;13.93;2.00;;;5.10;99.90;;;;;;4992191;28;20490;-78
2023/03/04 06:19:30;;;;;;;14.93;1.80;;;5.10;99.90;;;;;;5007017;28;20076;-77
2023/03/04 06:21:56;;;;;;;16.20;2.37;;;5.10;99.90;;;;;;4990710;28;20129;-77
2023/03/04 06:24:21;;;;;;;15.60;1.97;;;5.20;99.90;;;;;;5015659;28;20048;-78
2023/03/04 06:26:47;;;;;;;16.20;2.63;;;5.00;99.90;;;;;;4993459;28;20045;-77
2023/03/04 06:29:13;;;;;;;12.50;1.93;;;5.10;99.90;;;;;;5006063;28;20117;-77
2023/03/04 06:31:40;;;;;;;14.63;2.10;;;5.20;99.90;;;;;;5007815;28;20511;-77
2023/03/04 06:34:09;;;;;;;17.90;2.87;;;5.10;99.90;;;;;;5006964;28;20112;-77
2023/03/04 06:36:35;;;;;;;14.93;2.43;;;5.10;99.90;;;;;;4993614;28;21063;-78
2023/03/04 06:39:07;;;;;;;10.60;1.83;;;5.10;99.90;;;;;;5005661;28;20133;-77
2023/03/04 06:41:33;;;;;;;15.47;2.30;;;5.10;99.90;;;;;;5010514;28;20057;-78
2023/03/04 06:43:59;;;;;;;8.67;1.70;;;5.20;99.90;;;;;;5025918;28;20064;-76
2023/03/04 06:46:26;;;;;;;13.03;1.40;;;5.20;99.90;;;;;;5013969;28;20606;-77
2023/03/04 06:48:51;;;;;;;12.07;1.70;;;5.20;99.90;;;;;;5003452;28;20049;-77
2023/03/04 06:51:18;;;;;;;10.43;1.77;;;5.10;99.90;;;;;;4988929;28;20049;-78
2023/03/04 06:53:44;;;;;;;8.13;1.80;;;5.30;99.90;;;;;;5005170;28;20215;-78
2023/03/04 06:56:12;;;;;;;13.13;1.63;;;5.30;99.90;;;;;;4997562;28;20578;-78
2023/03/04 06:58:38;;;;;;;21.27;2.73;;;5.30;99.90;;;;;;4998119;28;20516;-77
2023/03/04 07:01:24;;;;;;;13.40;2.03;;;5.30;99.90;;;;;;5006293;28;20270;-78
2023/03/04 07:03:51;;;;;;;10.13;1.90;;;5.40;99.90;;;;;;5006054;28;20049;-77
2023/03/04 07:06:20;;;;;;;15.33;1.87;;;5.40;99.90;;;;;;4996633;28;20049;-78
2023/03/04 07:08:46;;;;;;;12.13;2.17;;;5.40;99.90;;;;;;5008227;28;20245;-78
2023/03/04 07:11:13;;;;;;;10.23;1.70;;;5.40;99.90;;;;;;5012547;28;20131;-78
2023/03/04 07:13:38;;;;;;;10.83;1.93;;;5.50;99.90;;;;;;5006153;28;20069;-78
2023/03/04 07:16:10;;;;;;;13.43;1.80;;;5.30;99.90;;;;;;5006188;28;20053;-78
2023/03/04 07:18:36;;;;;;;13.27;1.90;;;5.30;99.90;;;;;;4999114;28;20046;-77
2023/03/04 07:21:02;;;;;;;9.80;1.80;;;5.40;99.90;;;;;;5007087;28;20089;-77
2023/03/04 07:23:28;;;;;;;7.23;1.20;;;5.30;99.90;;;;;;5007760;28;20072;-77
2023/03/04 07:25:54;;;;;;;11.13;1.67;;;5.50;99.90;;;;;;5016024;28;20324;-78
2023/03/04 07:28:19;;;;;;;19.37;2.43;;;5.50;99.90;;;;;;4990414;28;20161;-78
2023/03/04 07:30:45;;;;;;;13.87;2.93;;;5.50;99.90;;;;;;5005259;28;20054;-77
2023/03/04 07:33:11;;;;;;;17.93;2.90;;;5.60;99.90;;;;;;5006133;28;20192;-78
2023/03/04 07:35:37;;;;;;;17.23;2.70;;;5.60;99.90;;;;;;5006585;28;20072;-77
2023/03/04 07:38:03;;;;;;;16.60;2.80;;;5.70;99.90;;;;;;4991840;28;20370;-78
2023/03/04 07:40:28;;;;;;;23.13;3.63;;;5.80;99.90;;;;;;5001518;28;20050;-77
2023/03/04 07:42:55;;;;;;;23.20;3.77;;;5.70;99.90;;;;;;5016970;28;20156;-77
2023/03/04 07:45:22;;;;;;;18.83;3.53;;;5.70;99.90;;;;;;5030511;28;20046;-78
2023/03/04 07:47:49;;;;;;;19.57;3.27;;;5.80;99.90;;;;;;5001575;28;20054;-77
2023/03/04 07:50:15;;;;;;;24.80;3.70;;;5.80;99.90;;;;;;5010320;28;20080;-77
2023/03/04 07:52:43;;;;;;;27.53;4.20;;;5.80;99.90;;;;;;5008411;28;20096;-77
2023/03/04 07:55:11;;;;;;;22.33;3.80;;;5.80;99.90;;;;;;5008914;28;20170;-77
2023/03/04 07:57:46;;;;;;;20.27;4.40;;;5.70;99.90;;;;;;4993388;28;20553;-78
2023/03/04 08:00:14;;;;;;;34.57;5.03;;;5.90;99.90;;;;;;5010152;28;20408;-78
2023/03/04 08:02:40;;;;;;;26.07;4.40;;;5.70;99.90;;;;;;4991318;28;20116;-78
2023/03/04 08:05:06;;;;;;;30.60;4.87;;;5.60;99.90;;;;;;5009801;28;20050;-78
2023/03/04 08:07:32;;;;;;;29.30;4.83;;;5.70;99.90;;;;;;4994012;28;20042;-77
2023/03/04 08:09:57;;;;;;;29.00;5.23;;;5.70;99.90;;;;;;5022531;28;20081;-77
2023/03/04 08:12:24;;;;;;;29.80;4.90;;;5.70;99.90;;;;;;5009287;28;20498;-78
2023/03/04 08:14:51;;;;;;;26.07;4.73;;;5.60;99.90;;;;;;5008725;28;20058;-78
2023/03/04 08:17:17;;;;;;;22.97;4.77;;;5.70;99.90;;;;;;4994776;28;20099;-78
2023/03/04 08:19:42;;;;;;;23.30;4.17;;;5.60;99.90;;;;;;5009582;28;20054;-77
2023/03/04 08:22:08;;;;;;;24.17;4.50;;;5.70;99.90;;;;;;5009239;28;20124;-77
2023/03/04 08:24:34;;;;;;;21.97;4.07;;;5.70;99.90;;;;;;5020440;28;20103;-77
2023/03/04 08:27:00;;;;;;;17.03;3.77;;;5.90;99.90;;;;;;4994502;28;20306;-77
2023/03/04 08:29:26;;;;;;;20.60;3.80;;;5.90;99.90;;;;;;5007968;28;20094;-78
2023/03/04 08:31:54;;;;;;;25.63;4.37;;;5.90;99.90;;;;;;5008827;28;20065;-77
2023/03/04 08:34:21;;;;;;;19.67;4.37;;;5.80;99.90;;;;;;5009145;28;20171;-77
2023/03/04 08:36:47;;;;;;;22.37;4.20;;;5.90;99.90;;;;;;4994041;28;20054;-77
2023/03/04 08:39:14;;;;;;;32.00;4.83;;;5.90;99.90;;;;;;5003093;28;20042;-78
2023/03/04 08:41:40;;;;;;;25.33;4.27;;;5.90;99.90;;;;;;5015242;28;20053;-77
2023/03/04 08:44:09;;;;;;;21.63;4.17;;;5.90;99.90;;;;;;5028373;28;20045;-78
2023/03/04 08:46:35;;;;;;;27.77;4.63;;;5.90;99.90;;;;;;5013375;28;20537;-78
2023/03/04 08:49:01;;;;;;;23.53;3.97;;;5.90;99.90;;;;;;5006961;28;20052;-78
2023/03/04 08:51:27;;;;;;;16.80;4.00;;;6.00;99.90;;;;;;5009614;28;20140;-78
2023/03/04 08:53:53;;;;;;;23.40;4.77;;;6.00;99.90;;;;;;5009326;28;20157;-77
2023/03/04 08:56:18;;;;;;;20.40;4.77;;;6.10;99.90;;;;;;5000974;28;20426;-77
2023/03/04 08:58:44;;;;;;;29.03;4.80;;;6.10;99.90;;;;;;5003163;28;20049;-77
2023/03/04 09:01:12;;;;;;;26.23;4.53;;;6.20;99.90;;;;;;5008961;28;20054;-77
2023/03/04 09:03:40;;;;;;;25.43;3.90;;;6.10;99.90;;;;;;5009184;28;20054;-78
2023/03/04 09:06:08;;;;;;;27.07;4.80;;;6.10;99.90;;;;;;5004505;28;20057;-78
2023/03/04 09:08:34;;;;;;;17.10;3.67;;;6.00;99.90;;;;;;5003780;28;20511;-77
2023/03/04 09:11:00;;;;;;;22.40;3.93;;;6.10;99.90;;;;;;5016790;28;20049;-77
2023/03/04 09:13:28;;;;;;;17.23;4.13;;;6.20;99.90;;;;;;5008362;28;20054;-76
2023/03/04 09:15:54;;;;;;;16.87;3.03;;;6.20;99.90;;;;;;5009935;28;20050;-77
2023/03/04 09:18:21;;;;;;;16.47;2.80;;;6.20;99.90;;;;;;4994524;28;20378;-77
2023/03/04 09:20:47;;;;;;;13.03;2.47;;;6.30;99.90;;;;;;5010028;28;20042;-76
2023/03/04 09:23:13;;;;;;;16.47;3.23;;;6.30;99.90;;;;;;5009262;28;20408;-76
2023/03/04 09:25:41;;;;;;;13.03;2.40;;;6.30;99.90;;;;;;5013461;28;20408;-78
2023/03/04 09:28:07;;;;;;;16.07;2.97;;;6.30;99.90;;;;;;4994067;28;20046;-77
2023/03/04 09:30:34;;;;;;;18.30;2.97;;;6.30;99.90;;;;;;5009234;28;20515;-77
2023/03/04 09:33:00;;;;;;;15.63;2.57;;;6.30;99.90;;;;;;5008619;28;20467;-77
2023/03/04 09:35:28;;;;;;;17.33;2.93;;;6.30;99.90;;;;;;5008889;28;20559;-76
2023/03/04 09:37:54;;;;;;;18.13;2.77;;;6.30;99.90;;;;;;4994281;28;20046;-77
2023/03/04 09:40:38;;;;;;;19.43;2.43;;;6.30;99.90;;;;;;5009453;28;20133;-77
2023/03/04 09:43:05;;;;;;;13.07;2.17;;;6.20;99.90;;;;;;5007605;28;20049;-77
2023/03/04 09:45:44;;;;;;;13.70;2.30;;;6.20;99.90;;;;;;5008315;28;20049;-77
2023/03/04 09:48:15;;;;;;;14.03;2.10;;;6.20;99.90;;;;;;4993343;28;20493;-77
2023/03/04 09:50:51;;;;;;;9.93;1.63;;;6.30;99.90;;;;;;5009329;28;20050;-77
2023/03/04 09:53:25;;;;;;;9.40;1.93;;;6.40;99.90;;;;;;5015321;28;20048;-77
2023/03/04 09:55:51;;;;;;;11.70;2.20;;;6.40;99.90;;;;;;5009544;28;20423;-77
2023/03/04 09:58:51;;;;;;;7.47;1.90;;;6.50;99.90;;;;;;4992008;28;20054;-77
2023/03/04 10:01:25;;;;;;;8.60;1.80;;;6.50;99.90;;;;;;5009154;28;20085;-77
2023/03/04 10:04:06;;;;;;;10.17;2.00;;;6.60;99.90;;;;;;5007048;28;20064;-78
2023/03/04 10:06:32;;;;;;;21.20;3.30;;;6.70;99.90;;;;;;4993179;28;20053;-77
2023/03/04 10:09:00;;;;;;;18.27;2.97;;;6.70;99.90;;;;;;5007020;28;20058;-77
2023/03/04 10:11:45;;;;;;;18.87;3.20;;;6.70;99.90;;;;;;5008269;28;20056;-76
2023/03/04 10:14:39;;;;;;;15.27;3.07;;;6.70;99.90;;;;;;5008286;28;20038;-77
2023/03/04 10:17:18;;;;;;;18.30;2.77;;;6.60;99.90;;;;;;4990718;28;20085;-76
2023/03/04 10:20:08;;;;;;;19.57;2.93;;;6.60;99.90;;;;;;5007608;28;20475;-77
2023/03/04 10:22:40;;;;;;;19.37;3.53;;;6.60;99.90;;;;;;5008791;28;20064;-77
2023/03/04 10:25:30;;;;;;;15.40;2.60;;;6.60;99.90;;;;;;5020814;28;20559;-78
2023/03/04 10:28:15;;;;;;;16.83;2.70;;;6.70;99.90;;;;;;4990341;28;20529;-78
2023/03/04 10:31:05;;;;;;;20.53;3.57;;;6.80;99.90;;;;;;5009283;28;20046;-77
2023/03/04 10:33:36;;;;;;;21.77;3.47;;;6.80;99.90;;;;;;5008854;28;20132;-77
2023/03/04 10:36:08;;;;;;;30.58;4.38;;;6.80;99.90;;;;;;5007779;28;20057;-77
2023/03/04 10:38:38;;;;;;;19.77;4.37;;;6.80;99.90;;;;;;5001525;28;20480;-77
2023/03/04 10:41:21;;;;;;;21.67;3.97;;;6.80;99.90;;;;;;4994547;28;20057;-77
2023/03/04 10:44:17;;;;;;;23.37;4.63;;;6.90;99.90;;;;;;5005501;28;20518;-78
2023/03/04 10:46:46;;;;;;;24.53;4.50;;;6.90;99.90;;;;;;4994967;28;20049;-77
2023/03/04 10:49:15;;;;;;;20.97;3.43;;;6.80;99.90;;;;;;5015344;28;20400;-77
2023/03/04 10:51:42;;;;;;;16.17;3.50;;;6.80;99.90;;;;;;5009764;28;20054;-77
2023/03/04 10:54:23;;;;;;;20.27;4.13;;;6.70;99.90;;;;;;5007265;28;20130;-78
2023/03/04 10:57:15;;;;;;;19.50;3.28;;;6.80;99.90;;;;;;4993781;28;20516;-77
2023/03/04 10:59:45;;;;;;;19.57;3.50;;;6.90;99.90;;;;;;5026007;28;20052;-76
2023/03/04 11:02:15;;;;;;;13.77;3.10;;;6.90;99.90;;;;;;5028211;28;20049;-77
2023/03/04 11:04:41;;;;;;;17.40;3.13;;;6.90;99.90;;;;;;5028818;28;20049;-77
2023/03/04 11:07:10;;;;;;;18.07;3.50;;;6.90;99.90;;;;;;5010965;28;20099;-77
2023/03/04 11:09:36;;;;;;;18.33;4.10;;;6.90;99.90;;;;;;5037233;28;20398;-78
2023/03/04 11:12:12;;;;;;;16.90;3.77;;;7.00;99.90;;;;;;5026847;28;20056;-76
2023/03/04 11:14:45;;;;;;;22.83;4.10;;;7.00;99.90;;;;;;5006185;28;20125;-77
2023/03/04 11:17:18;;;;;;;26.50;4.20;;;7.20;99.90;;;;;;4991063;28;20558;-76
2023/03/04 11:19:49;;;;;;;16.07;3.37;;;7.20;99.90;;;;;;5009060;28;20089;-78
2023/03/04 11:22:17;;;;;;;22.03;3.60;;;7.10;99.90;;;;;;5008879;28;20056;-78
2023/03/04 11:24:43;;;;;;;16.00;2.83;;;6.90;99.90;;;;;;5011045;28;20054;-77
2023/03/04 11:27:21;;;;;;;16.13;3.03;;;7.10;99.90;;;;;;5010864;28;20432;-77
2023/03/04 11:29:59;;;;;;;22.93;3.53;;;7.10;99.90;;;;;;5010961;28;20085;-77
2023/03/04 11:32:31;;;;;;;21.57;3.67;;;7.50;99.90;;;;;;5008614;28;20132;-77
2023/03/04 11:35:33;;;;;;;19.67;4.00;;;8.00;99.90;;;;;;5011248;28;20038;-77
2023/03/04 11:38:16;;;;;;;20.55;4.07;;;7.80;99.90;;;;;;4990373;28;20064;-77
2023/03/04 11:41:09;;;;;;;20.00;3.97;;;7.40;99.90;;;;;;4992837;28;20065;-77
2023/03/04 11:43:36;;;;;;;18.43;4.20;;;7.00;99.90;;;;;;5005656;28;20081;-79
2023/03/04 11:46:24;;;;;;;24.37;4.20;;;6.90;99.90;;;;;;4991387;28;20097;-78
2023/03/04 11:49:04;;;;;;;32.77;4.77;;;6.90;99.90;;;;;;4996826;28;20493;-77
2023/03/04 11:51:39;;;;;;;22.70;4.50;;;6.90;99.90;;;;;;5010914;28;20107;-77
2023/03/04 11:54:07;;;;;;;23.00;4.50;;;6.90;99.90;;;;;;5007655;28;20046;-78
2023/03/04 11:56:42;;;;;;;26.90;5.30;;;7.00;99.90;;;;;;4996791;28;20053;-79
2023/03/04 11:59:16;;;;;;;25.07;4.33;;;7.10;99.90;;;;;;5008032;28;20053;-77
2023/03/04 12:01:50;;;;;;;19.43;4.17;;;7.10;99.90;;;;;;5010077;28;20542;-78
2023/03/04 12:04:39;;;;;;;17.40;3.87;;;7.20;99.90;;;;;;5007705;28;20073;-77
2023/03/04 12:07:13;;;;;;;21.27;3.87;;;7.40;99.90;;;;;;4989462;28;20069;-77
2023/03/04 12:09:56;;;;;;;19.67;3.97;;;7.40;99.90;;;;;;5022494;28;20054;-78
2023/03/04 12:12:40;;;;;;;19.67;4.53;;;7.30;99.90;;;;;;5009431;28;20104;-77
2023/03/04 12:15:22;;;;;;;27.87;4.67;;;7.10;99.90;;;;;;5009425;28;20061;-78
2023/03/04 12:18:12;;;;;;;21.37;4.10;;;7.30;99.90;;;;;;4992901;28;20061;-77
2023/03/04 12:21:04;;;;;;;24.30;4.00;;;7.00;99.90;;;;;;5007935;28;20111;-77
2023/03/04 12:24:03;;;;;;;17.77;3.70;;;6.80;99.90;;;;;;5007755;28;20166;-77
2023/03/04 12:26:56;;;;;;;15.17;3.20;;;6.50;99.90;;;;;;5006428;28;20046;-79
2023/03/04 12:29:52;;;;;;;18.10;3.27;;;6.40;99.90;;;;;;5009813;28;20053;-78
2023/03/04 12:32:35;;;;;;;16.07;2.97;;;6.60;99.90;;;;;;5010949;28;20054;-77
2023/03/04 12:35:26;;;;;;;20.90;3.47;;;7.70;99.90;;;;;;5011764;28;20489;-77
2023/03/04 12:38:03;;;;;;;11.02;2.40;;;9.60;99.90;;;;;;4996116;28;20160;-78
2023/03/04 12:40:36;;;;;;;19.53;3.30;;;10.10;99.90;;;;;;4994687;28;20050;-78
2023/03/04 12:43:07;;;;;;;16.97;3.53;;;9.70;99.90;;;;;;5023700;28;20053;-78
2023/03/04 12:45:44;;;;;;;18.83;3.17;;;10.20;99.90;;;;;;5030475;28;20073;-77
2023/03/04 12:48:33;;;;;;;25.40;3.83;;;10.10;99.90;;;;;;4999107;28;20099;-77
2023/03/04 12:51:16;;;;;;;18.27;3.53;;;9.40;99.90;;;;;;5010595;28;20152;-78
2023/03/04 12:54:00;;;;;;;17.17;3.43;;;8.80;99.90;;;;;;5010581;28;20100;-78
2023/03/04 12:56:36;;;;;;;19.83;3.63;;;8.40;99.90;;;;;;4999658;28;20050;-78
2023/03/04 12:59:03;;;;;;;13.07;2.93;;;7.90;99.90;;;;;;5009258;28;20081;-77